Time;durP1;ratioP1;P1;durP2;ratioP2;P2;SDS_P1;SDS_P2;PMS_P1;PMS_P2;Temp;Humidity;BMP_temperature;BMP_pressure;BME280_temperature;BME280_humidity;BME280_pressure;Samples;Min_cycle;Max_cycle;Signal;HPM_P1;HPM_P2
2024/02/03 00:00:13;;;;;;;37.50;26.05;;;11.00;99.90;;;;;;5021512;28;20030;-77
2024/02/03 00:02:39;;;;;;;45.63;27.50;;;10.90;99.90;;;;;;5034611;28;20040;-77
2024/02/03 00:05:05;;;;;;;40.10;25.92;;;10.90;99.90;;;;;;5034515;28;20528;-77
2024/02/03 00:07:30;;;;;;;39.65;26.15;;;11.00;99.90;;;;;;5029017;28;20033;-78
2024/02/03 00:09:56;;;;;;;40.42;26.83;;;11.00;99.90;;;;;;5020307;28;20044;-77
2024/02/03 00:12:25;;;;;;;40.63;25.33;;;10.90;99.90;;;;;;5027179;28;20026;-77
2024/02/03 00:14:52;;;;;;;42.03;26.40;;;11.00;99.90;;;;;;5019268;28;20026;-78
2024/02/03 00:17:17;;;;;;;42.85;26.25;;;11.00;99.90;;;;;;5021310;28;20018;-77
2024/02/03 00:19:43;;;;;;;40.60;24.63;;;11.00;99.90;;;;;;5021913;28;20036;-77
2024/02/03 00:22:10;;;;;;;40.95;26.13;;;11.00;99.90;;;;;;5013098;28;20034;-77
2024/02/03 00:24:36;;;;;;;41.95;25.67;;;11.00;99.90;;;;;;5015874;28;20379;-77
2024/02/03 00:27:02;;;;;;;44.92;27.17;;;11.00;99.90;;;;;;5024530;28;20032;-77
2024/02/03 00:29:28;;;;;;;38.85;25.33;;;10.90;99.90;;;;;;5026616;28;20572;-77
2024/02/03 00:31:54;;;;;;;39.92;25.05;;;10.90;99.90;;;;;;5019580;28;20049;-77
2024/02/03 00:34:20;;;;;;;41.65;25.10;;;10.90;99.90;;;;;;5017863;28;20075;-77
2024/02/03 00:36:45;;;;;;;41.15;25.58;;;10.90;99.90;;;;;;5034395;28;20037;-77
2024/02/03 00:39:11;;;;;;;45.75;26.52;;;11.00;99.90;;;;;;5034107;28;20390;-77
2024/02/03 00:41:37;;;;;;;44.00;25.90;;;11.00;99.90;;;;;;5034003;28;20025;-77
2024/02/03 00:44:03;;;;;;;44.70;27.77;;;11.00;99.90;;;;;;5025547;28;20486;-77
2024/02/03 00:46:29;;;;;;;42.03;25.55;;;11.00;99.90;;;;;;5024936;28;20543;-77
2024/02/03 00:48:55;;;;;;;42.92;26.20;;;10.90;99.90;;;;;;5023517;28;20104;-78
2024/02/03 00:51:21;;;;;;;39.00;24.15;;;11.00;99.90;;;;;;5023333;28;20026;-77
2024/02/03 00:53:46;;;;;;;43.40;25.98;;;11.00;99.90;;;;;;5019295;28;20041;-77
2024/02/03 00:56:12;;;;;;;40.33;26.33;;;11.00;99.90;;;;;;5017418;28;20033;-77
2024/02/03 00:58:38;;;;;;;45.13;25.73;;;11.00;99.90;;;;;;5032657;28;20037;-77
2024/02/03 01:01:04;;;;;;;42.83;26.50;;;11.00;99.90;;;;;;5033608;28;20033;-77
2024/02/03 01:03:30;;;;;;;43.13;25.98;;;11.00;99.90;;;;;;5033170;28;20026;-77
2024/02/03 01:05:55;;;;;;;44.78;25.60;;;11.00;99.90;;;;;;5033628;28;20083;-77
2024/02/03 01:08:22;;;;;;;41.95;25.95;;;11.00;99.90;;;;;;5032687;28;20053;-77
2024/02/03 01:10:47;;;;;;;48.50;28.20;;;11.00;99.90;;;;;;5033286;28;20026;-77
2024/02/03 01:13:13;;;;;;;40.70;24.65;;;10.90;99.90;;;;;;5033174;28;20032;-77
2024/02/03 01:15:39;;;;;;;40.45;23.17;;;10.90;99.90;;;;;;5026833;28;20578;-77
2024/02/03 01:18:05;;;;;;;39.78;23.40;;;10.90;99.90;;;;;;5032717;28;20037;-77
2024/02/03 01:20:34;;;;;;;39.75;24.70;;;10.90;99.90;;;;;;5033194;28;20376;-77
2024/02/03 01:23:00;;;;;;;39.88;23.35;;;10.90;99.90;;;;;;5032891;28;20478;-77
2024/02/03 01:25:26;;;;;;;38.10;24.23;;;10.90;99.90;;;;;;5032378;28;20051;-77
2024/02/03 01:27:51;;;;;;;38.28;24.25;;;11.00;99.90;;;;;;5033325;28;20470;-77
2024/02/03 01:30:17;;;;;;;40.20;23.27;;;11.00;99.90;;;;;;5032797;28;20037;-77
2024/02/03 01:32:43;;;;;;;36.67;22.65;;;11.00;99.90;;;;;;5032883;28;20034;-77
2024/02/03 01:35:09;;;;;;;33.78;21.85;;;11.00;99.90;;;;;;5032970;28;20052;-77
2024/02/03 01:37:35;;;;;;;41.22;23.27;;;11.00;99.90;;;;;;5032915;28;20036;-77
2024/02/03 01:40:03;;;;;;;35.00;21.90;;;11.00;99.90;;;;;;5032178;28;20033;-77
2024/02/03 01:42:29;;;;;;;35.90;22.75;;;11.00;99.90;;;;;;5031909;28;20382;-77
2024/02/03 01:44:55;;;;;;;32.15;21.85;;;11.00;99.90;;;;;;5032875;28;20021;-77
2024/02/03 01:47:21;;;;;;;37.83;22.00;;;11.00;99.90;;;;;;5032445;28;20013;-77
2024/02/03 01:49:49;;;;;;;34.33;22.33;;;11.00;99.90;;;;;;5032286;28;20179;-77
2024/02/03 01:52:15;;;;;;;34.78;23.42;;;11.00;99.90;;;;;;5031848;28;20379;-77
2024/02/03 01:54:44;;;;;;;29.70;19.00;;;10.90;99.90;;;;;;5031925;28;20021;-77
2024/02/03 01:57:10;;;;;;;36.78;21.20;;;10.90;99.90;;;;;;5032725;28;20029;-77
2024/02/03 01:59:36;;;;;;;30.15;18.80;;;11.00;99.90;;;;;;5031742;28;20588;-77
2024/02/03 02:02:02;;;;;;;28.35;18.65;;;11.00;99.90;;;;;;5032472;28;20040;-77
2024/02/03 02:04:31;;;;;;;29.30;19.08;;;11.00;99.90;;;;;;5032609;28;20030;-78
2024/02/03 02:06:58;;;;;;;30.85;20.00;;;11.00;99.90;;;;;;5032719;28;20018;-77
2024/02/03 02:09:26;;;;;;;32.08;21.67;;;11.00;99.90;;;;;;5032587;28;20030;-78
2024/02/03 02:11:54;;;;;;;31.13;18.92;;;11.00;99.90;;;;;;5031417;28;20017;-77
2024/02/03 02:14:21;;;;;;;34.65;21.08;;;11.00;99.90;;;;;;5032236;28;20029;-77
2024/02/03 02:16:47;;;;;;;30.48;20.92;;;11.00;99.90;;;;;;5032129;28;20022;-78
2024/02/03 02:19:13;;;;;;;31.20;19.35;;;11.00;99.90;;;;;;5030841;28;20030;-78
2024/02/03 02:21:39;;;;;;;33.15;20.45;;;11.00;99.90;;;;;;5031934;28;20482;-78
2024/02/03 02:24:05;;;;;;;27.48;18.10;;;11.00;99.90;;;;;;5029531;28;20068;-77
2024/02/03 02:26:31;;;;;;;28.83;20.27;;;11.00;99.90;;;;;;5020649;28;20030;-77
2024/02/03 02:28:56;;;;;;;32.10;20.08;;;11.00;99.90;;;;;;5010862;28;20038;-78
2024/02/03 02:31:22;;;;;;;32.35;20.60;;;11.00;99.90;;;;;;5012421;28;20037;-78
2024/02/03 02:33:48;;;;;;;37.53;21.60;;;11.00;99.90;;;;;;5012627;28;20519;-78
2024/02/03 02:36:13;;;;;;;33.00;21.15;;;11.00;99.90;;;;;;5012032;28;20026;-78
2024/02/03 02:38:39;;;;;;;41.60;24.45;;;11.00;99.90;;;;;;5011434;28;20029;-78
2024/02/03 02:41:05;;;;;;;36.58;22.98;;;11.00;99.90;;;;;;5011987;28;20049;-78
2024/02/03 02:43:31;;;;;;;33.97;22.27;;;11.00;99.90;;;;;;5012522;28;20069;-78
2024/02/03 02:45:56;;;;;;;33.90;21.55;;;11.10;99.90;;;;;;5011851;28;20037;-78
2024/02/03 02:48:22;;;;;;;36.55;23.25;;;11.10;99.90;;;;;;5010774;28;20105;-78
2024/02/03 02:50:48;;;;;;;36.55;22.00;;;11.10;99.90;;;;;;5028041;28;20048;-78
2024/02/03 02:53:14;;;;;;;41.55;24.60;;;11.00;99.90;;;;;;5031532;28;20017;-79
2024/02/03 02:55:40;;;;;;;40.92;24.83;;;11.00;99.90;;;;;;5031513;28;20505;-78
2024/02/03 02:58:06;;;;;;;39.42;21.85;;;11.00;99.90;;;;;;5031348;28;20025;-79
2024/02/03 03:00:32;;;;;;;31.05;18.85;;;11.10;99.90;;;;;;5031218;28;20402;-79
2024/02/03 03:02:58;;;;;;;38.03;23.02;;;11.10;99.90;;;;;;5031294;28;20017;-79
2024/02/03 03:05:24;;;;;;;36.92;23.08;;;11.00;99.90;;;;;;5030878;28;20030;-78
2024/02/03 03:07:50;;;;;;;38.33;22.13;;;11.10;99.90;;;;;;5035269;28;20033;-79
2024/02/03 03:10:16;;;;;;;34.55;23.20;;;11.10;99.90;;;;;;5036049;28;20116;-79
2024/02/03 03:12:42;;;;;;;34.85;21.75;;;11.10;99.90;;;;;;5034131;28;20100;-79
2024/02/03 03:15:09;;;;;;;32.97;21.27;;;11.10;99.90;;;;;;5035917;28;20029;-79
2024/02/03 03:17:35;;;;;;;30.00;19.40;;;11.10;99.90;;;;;;5034584;28;20022;-80
2024/02/03 03:20:01;;;;;;;34.85;20.88;;;11.10;99.90;;;;;;5035754;28;20025;-79
2024/02/03 03:22:27;;;;;;;33.13;20.35;;;11.10;99.90;;;;;;5035255;28;20040;-79
2024/02/03 03:24:53;;;;;;;31.67;19.58;;;11.10;99.90;;;;;;5035550;28;20022;-79
2024/02/03 03:27:18;;;;;;;30.83;19.15;;;11.10;99.90;;;;;;5024466;28;20030;-79
2024/02/03 03:29:46;;;;;;;29.25;18.65;;;11.10;99.90;;;;;;5014766;28;20669;-79
2024/02/03 03:32:12;;;;;;;33.95;19.85;;;11.10;99.90;;;;;;5014733;28;20101;-79
2024/02/03 03:34:40;;;;;;;30.45;19.58;;;11.10;99.90;;;;;;5014527;28;20371;-79
2024/02/03 03:37:06;;;;;;;31.10;18.27;;;11.10;99.90;;;;;;5014906;28;20029;-78
2024/02/03 03:39:32;;;;;;;32.40;17.77;;;11.10;99.90;;;;;;5015853;28;20030;-79
2024/02/03 03:41:58;;;;;;;30.27;19.48;;;11.10;99.90;;;;;;5013985;28;20478;-79
2024/02/03 03:44:23;;;;;;;27.33;16.98;;;11.10;99.90;;;;;;5014086;28;20021;-79
2024/02/03 03:46:49;;;;;;;29.15;17.83;;;11.00;99.90;;;;;;5015758;28;20057;-79
2024/02/03 03:49:15;;;;;;;27.95;17.60;;;11.10;99.90;;;;;;5014845;28;20471;-80
2024/02/03 03:51:41;;;;;;;28.88;16.90;;;11.10;99.90;;;;;;5015960;28;20036;-78
2024/02/03 03:54:06;;;;;;;29.15;17.38;;;11.10;99.90;;;;;;5025942;28;20018;-79
2024/02/03 03:56:32;;;;;;;29.13;18.63;;;11.10;99.90;;;;;;5014643;28;20414;-79
2024/02/03 03:58:59;;;;;;;26.52;16.25;;;11.10;99.90;;;;;;5016994;28;20030;-79
2024/02/03 04:01:25;;;;;;;25.88;16.42;;;11.10;99.90;;;;;;5032694;28;20036;-80
2024/02/03 04:03:50;;;;;;;23.65;15.80;;;11.10;99.90;;;;;;5033215;28;20033;-79
2024/02/03 04:06:16;;;;;;;28.80;16.20;;;11.10;99.90;;;;;;5032865;28;20026;-79
2024/02/03 04:08:42;;;;;;;23.17;15.73;;;11.10;99.90;;;;;;5032916;28;20026;-79
2024/02/03 04:11:08;;;;;;;23.92;15.77;;;11.10;99.90;;;;;;5033317;28;20108;-80
2024/02/03 04:13:34;;;;;;;24.40;16.23;;;11.10;99.90;;;;;;5033780;28;20070;-79
2024/02/03 04:15:59;;;;;;;27.65;16.30;;;11.10;99.90;;;;;;5032634;28;20104;-79
2024/02/03 04:18:25;;;;;;;27.38;16.85;;;11.10;99.90;;;;;;5033077;28;20359;-79
2024/02/03 04:20:51;;;;;;;27.02;14.73;;;11.10;99.90;;;;;;5033724;28;20033;-79
2024/02/03 04:23:17;;;;;;;22.50;15.05;;;11.20;99.90;;;;;;5033271;28;20053;-79
2024/02/03 04:25:43;;;;;;;24.50;15.52;;;11.20;99.90;;;;;;5032333;28;20127;-79
2024/02/03 04:28:08;;;;;;;24.48;13.90;;;11.10;99.90;;;;;;5033223;28;20156;-79
2024/02/03 04:30:34;;;;;;;24.05;13.57;;;11.20;99.90;;;;;;5033451;28;20091;-80
2024/02/03 04:33:00;;;;;;;24.33;13.95;;;11.20;99.90;;;;;;5032959;28;20037;-80
2024/02/03 04:35:25;;;;;;;22.35;14.48;;;11.20;99.90;;;;;;5032387;28;20033;-79
2024/02/03 04:37:52;;;;;;;19.40;13.00;;;11.20;99.90;;;;;;5031828;28;20024;-80
2024/02/03 04:40:17;;;;;;;25.63;14.45;;;11.20;99.90;;;;;;5033017;28;20057;-80
2024/02/03 04:42:43;;;;;;;21.70;13.98;;;11.20;99.90;;;;;;5033370;28;20049;-78
2024/02/03 04:45:09;;;;;;;21.02;12.23;;;11.20;99.90;;;;;;5031608;28;20040;-77
2024/02/03 04:47:35;;;;;;;17.63;12.23;;;11.20;99.90;;;;;;5038681;28;20025;-79
2024/02/03 04:50:04;;;;;;;21.02;12.65;;;11.10;99.90;;;;;;5051785;28;20435;-79
2024/02/03 04:52:29;;;;;;;22.48;12.15;;;11.10;99.90;;;;;;5052879;28;20033;-79
2024/02/03 04:54:55;;;;;;;23.15;13.57;;;11.10;99.90;;;;;;5051018;28;20428;-79
2024/02/03 04:57:21;;;;;;;24.05;13.45;;;11.10;99.90;;;;;;5052843;28;20063;-79
2024/02/03 04:59:46;;;;;;;19.23;12.50;;;11.10;99.90;;;;;;5006084;28;1170944;-79
2024/02/03 05:02:12;;;;;;;21.65;11.90;;;11.10;99.90;;;;;;5033861;28;20521;-79
2024/02/03 05:04:38;;;;;;;22.90;11.35;;;11.10;99.90;;;;;;5033391;28;20021;-78
2024/02/03 05:07:03;;;;;;;18.10;11.63;;;11.20;99.90;;;;;;5033408;28;20051;-79
2024/02/03 05:09:29;;;;;;;19.92;11.20;;;11.10;99.90;;;;;;5024699;28;20042;-79
2024/02/03 05:11:55;;;;;;;18.85;11.57;;;11.20;99.90;;;;;;5019225;28;20021;-78
2024/02/03 05:14:21;;;;;;;14.57;10.52;;;11.20;99.90;;;;;;5031807;28;20448;-79
2024/02/03 05:16:46;;;;;;;18.27;10.75;;;11.20;99.90;;;;;;5032779;28;20018;-79
2024/02/03 05:19:12;;;;;;;26.95;11.88;;;11.20;99.90;;;;;;5033180;28;20032;-79
2024/02/03 05:21:42;;;;;;;19.08;12.18;;;11.20;99.90;;;;;;5033011;28;20025;-80
2024/02/03 05:24:08;;;;;;;20.15;11.95;;;11.10;99.90;;;;;;5033027;28;20017;-80
2024/02/03 05:26:33;;;;;;;17.95;11.48;;;11.10;99.90;;;;;;5032967;28;20021;-80
2024/02/03 05:28:59;;;;;;;20.38;12.40;;;11.20;99.90;;;;;;5032486;28;20111;-79
2024/02/03 05:31:25;;;;;;;22.88;12.63;;;11.20;99.90;;;;;;5032465;28;20379;-80
2024/02/03 05:33:50;;;;;;;21.42;13.00;;;11.30;99.90;;;;;;5032945;28;20030;-79
2024/02/03 05:36:16;;;;;;;16.30;11.55;;;11.20;99.90;;;;;;5033088;28;20034;-79
2024/02/03 05:38:41;;;;;;;20.08;12.38;;;11.20;99.90;;;;;;5032220;28;20398;-80
2024/02/03 05:41:07;;;;;;;18.17;12.77;;;11.20;99.90;;;;;;5030406;28;20021;-80
2024/02/03 05:43:33;;;;;;;21.65;12.70;;;11.20;99.90;;;;;;5033199;28;20025;-80
2024/02/03 05:45:59;;;;;;;19.27;12.50;;;11.30;99.90;;;;;;5032061;28;20046;-80
2024/02/03 05:48:25;;;;;;;24.48;12.75;;;11.30;99.90;;;;;;5033071;28;20025;-80
2024/02/03 05:50:51;;;;;;;24.92;13.15;;;11.30;99.90;;;;;;5032948;28;20104;-80
2024/02/03 05:53:17;;;;;;;28.60;13.95;;;11.30;99.90;;;;;;5031653;28;20017;-80
2024/02/03 05:55:43;;;;;;;18.48;13.43;;;11.20;99.90;;;;;;5032668;28;20381;-80
2024/02/03 05:58:08;;;;;;;23.98;14.13;;;11.30;99.90;;;;;;5033041;28;20449;-80
2024/02/03 06:00:34;;;;;;;24.58;14.27;;;11.30;99.90;;;;;;5032611;28;20033;-80
2024/02/03 06:03:01;;;;;;;25.77;14.43;;;11.30;99.90;;;;;;5032162;28;20037;-80
2024/02/03 06:05:26;;;;;;;28.00;15.00;;;11.30;99.90;;;;;;5032182;28;20108;-80
2024/02/03 06:07:52;;;;;;;30.42;15.27;;;11.40;99.90;;;;;;5031298;28;20137;-79
2024/02/03 06:10:18;;;;;;;21.83;14.07;;;11.40;99.90;;;;;;5032567;28;20049;-80
2024/02/03 06:12:44;;;;;;;24.85;15.38;;;11.40;99.90;;;;;;5031086;28;20032;-80
2024/02/03 06:15:10;;;;;;;28.05;14.48;;;11.40;99.90;;;;;;5032498;28;20061;-80
2024/02/03 06:17:35;;;;;;;28.02;14.20;;;11.30;99.90;;;;;;5020450;28;20064;-80
2024/02/03 06:20:01;;;;;;;20.90;14.43;;;11.30;99.90;;;;;;5028574;28;20029;-80
2024/02/03 06:22:27;;;;;;;25.23;14.30;;;11.30;99.90;;;;;;5030378;28;20068;-80
2024/02/03 06:24:53;;;;;;;21.75;13.98;;;11.30;99.90;;;;;;5031618;28;20029;-80
2024/02/03 06:27:19;;;;;;;21.77;15.60;;;11.40;99.90;;;;;;5031720;28;20100;-80
2024/02/03 06:29:45;;;;;;;24.45;14.63;;;11.40;99.90;;;;;;5031831;28;20045;-79
2024/02/03 06:32:11;;;;;;;19.60;13.70;;;11.40;99.90;;;;;;5027581;28;20032;-80
2024/02/03 06:34:37;;;;;;;22.23;13.30;;;11.40;99.90;;;;;;5021029;28;20030;-80
2024/02/03 06:37:03;;;;;;;24.52;13.88;;;11.40;99.90;;;;;;5010165;28;20060;-79
2024/02/03 06:39:29;;;;;;;23.50;13.77;;;11.40;99.90;;;;;;5012861;28;20140;-79
2024/02/03 06:41:55;;;;;;;25.55;14.45;;;11.40;99.90;;;;;;5011578;28;20494;-80
2024/02/03 06:44:21;;;;;;;20.45;12.00;;;11.40;99.90;;;;;;5012196;28;20026;-79
2024/02/03 06:46:46;;;;;;;21.60;12.30;;;11.40;99.90;;;;;;5010846;28;20486;-79
2024/02/03 06:49:12;;;;;;;17.58;11.68;;;11.40;99.90;;;;;;5012522;28;20120;-79
2024/02/03 06:51:38;;;;;;;19.88;11.82;;;11.40;99.90;;;;;;5012113;28;20082;-79
2024/02/03 06:54:05;;;;;;;15.68;11.63;;;11.40;99.90;;;;;;5011030;28;20041;-79
2024/02/03 06:56:30;;;;;;;20.42;10.73;;;11.50;99.90;;;;;;5011682;28;20061;-79
2024/02/03 06:58:56;;;;;;;20.27;10.27;;;11.50;99.90;;;;;;5016800;28;20069;-79
2024/02/03 07:01:22;;;;;;;18.15;10.95;;;11.50;99.90;;;;;;5018361;28;20084;-79
2024/02/03 07:03:48;;;;;;;17.05;10.55;;;11.40;99.90;;;;;;5014957;28;20497;-79
2024/02/03 07:06:14;;;;;;;19.10;10.13;;;11.50;99.90;;;;;;5020699;28;20022;-80
2024/02/03 07:08:40;;;;;;;15.73;11.13;;;11.50;99.90;;;;;;5011826;28;20038;-80
2024/02/03 07:11:06;;;;;;;22.75;11.40;;;11.50;99.90;;;;;;5011190;28;20025;-79
2024/02/03 07:13:32;;;;;;;24.02;11.73;;;11.40;99.90;;;;;;5031873;28;20055;-79
2024/02/03 07:15:58;;;;;;;22.75;10.93;;;11.40;99.90;;;;;;5031224;28;20466;-79
2024/02/03 07:18:24;;;;;;;15.68;8.95;;;11.50;99.90;;;;;;5030539;28;20026;-80
2024/02/03 07:20:50;;;;;;;22.38;11.57;;;11.50;99.90;;;;;;5031755;28;20033;-79
2024/02/03 07:23:16;;;;;;;17.88;10.88;;;11.50;99.90;;;;;;5031528;28;20087;-79
2024/02/03 07:25:42;;;;;;;17.85;11.02;;;11.50;99.90;;;;;;5029706;28;20029;-79
2024/02/03 07:28:07;;;;;;;20.15;11.02;;;11.50;99.90;;;;;;5031935;28;20018;-79
2024/02/03 07:30:33;;;;;;;20.67;10.55;;;11.50;99.90;;;;;;5028678;28;20453;-80
2024/02/03 07:33:01;;;;;;;21.63;11.07;;;11.50;99.90;;;;;;5013309;28;20030;-79
2024/02/03 07:35:29;;;;;;;26.35;11.20;;;11.60;99.90;;;;;;5024610;28;20025;-79
2024/02/03 07:37:55;;;;;;;19.58;12.07;;;11.50;99.90;;;;;;5031768;28;20476;-79
2024/02/03 07:40:21;;;;;;;17.95;10.60;;;11.50;99.90;;;;;;5031749;28;20064;-80
2024/02/03 07:42:47;;;;;;;20.75;11.43;;;11.50;99.90;;;;;;5031806;28;20033;-80
2024/02/03 07:45:13;;;;;;;22.50;10.48;;;11.50;99.90;;;;;;5021581;28;20018;-79
2024/02/03 07:47:38;;;;;;;20.02;10.55;;;11.50;99.90;;;;;;5015178;28;20026;-79
2024/02/03 07:50:04;;;;;;;26.10;12.40;;;11.60;99.90;;;;;;5014992;28;20037;-79
2024/02/03 07:52:30;;;;;;;21.08;10.70;;;11.50;99.90;;;;;;5013297;28;20037;-80
2024/02/03 07:54:56;;;;;;;21.15;11.15;;;11.50;99.90;;;;;;5023763;28;20053;-79
2024/02/03 07:57:22;;;;;;;18.25;10.52;;;11.50;99.90;;;;;;5032818;28;20032;-80
2024/02/03 07:59:48;;;;;;;24.50;12.43;;;11.50;99.90;;;;;;5014495;28;20033;-79
2024/02/03 08:02:14;;;;;;;23.90;11.48;;;11.50;99.90;;;;;;5017024;28;20029;-79
2024/02/03 08:04:39;;;;;;;23.90;11.35;;;11.50;99.90;;;;;;5031145;28;20087;-78
2024/02/03 08:07:05;;;;;;;16.33;9.30;;;11.50;99.90;;;;;;5028169;28;20030;-79
2024/02/03 08:09:31;;;;;;;26.90;11.73;;;11.50;99.90;;;;;;5021801;28;20383;-79
2024/02/03 08:11:59;;;;;;;25.02;11.75;;;11.50;99.90;;;;;;5021736;28;20033;-80
2024/02/03 08:14:24;;;;;;;23.60;11.80;;;11.60;99.90;;;;;;5035006;28;20352;-77
2024/02/03 08:16:50;;;;;;;22.33;11.85;;;11.60;99.90;;;;;;5032709;28;20498;-77
2024/02/03 08:19:16;;;;;;;25.63;11.23;;;11.50;99.90;;;;;;5032372;28;20014;-78
2024/02/03 08:21:42;;;;;;;25.10;11.95;;;11.50;99.90;;;;;;5034749;28;20037;-78
2024/02/03 08:24:07;;;;;;;27.92;13.05;;;11.50;99.90;;;;;;5028565;28;20021;-78
2024/02/03 08:26:33;;;;;;;24.05;11.65;;;11.50;99.90;;;;;;5015600;28;20233;-77
2024/02/03 08:28:59;;;;;;;24.30;12.43;;;11.40;99.90;;;;;;5023926;28;20082;-77
2024/02/03 08:31:24;;;;;;;28.73;13.30;;;11.50;99.90;;;;;;5025453;28;20056;-78
2024/02/03 08:33:50;;;;;;;21.70;11.73;;;11.50;99.90;;;;;;5025639;28;20387;-77
2024/02/03 08:36:16;;;;;;;27.88;13.05;;;11.60;99.90;;;;;;5020785;28;20033;-78
2024/02/03 08:38:42;;;;;;;24.23;12.40;;;11.60;99.90;;;;;;5013499;28;20029;-78
2024/02/03 08:41:11;;;;;;;26.67;12.93;;;11.60;99.90;;;;;;5013595;28;20105;-77
2024/02/03 08:43:37;;;;;;;23.88;12.95;;;11.60;99.90;;;;;;5012554;28;20109;-80
2024/02/03 08:46:02;;;;;;;30.73;13.30;;;11.60;99.90;;;;;;5027829;28;20056;-78
2024/02/03 08:48:28;;;;;;;28.13;13.70;;;11.60;99.90;;;;;;5032664;28;20052;-78
2024/02/03 08:50:54;;;;;;;28.55;13.00;;;11.70;99.90;;;;;;5033959;28;20033;-78
2024/02/03 08:53:20;;;;;;;27.58;12.63;;;11.60;99.90;;;;;;5032044;28;20030;-76
2024/02/03 08:55:46;;;;;;;25.75;13.13;;;11.50;99.90;;;;;;5033103;28;20029;-78
2024/02/03 08:58:12;;;;;;;26.63;14.07;;;11.50;99.90;;;;;;5027939;28;20030;-77
2024/02/03 09:00:38;;;;;;;26.45;13.52;;;11.60;99.90;;;;;;5031958;28;20067;-76
2024/02/03 09:03:04;;;;;;;25.90;13.25;;;11.70;99.90;;;;;;5030868;28;20040;-76
2024/02/03 09:05:31;;;;;;;26.00;13.30;;;11.70;99.90;;;;;;5023010;28;20037;-77
2024/02/03 09:07:56;;;;;;;25.88;13.63;;;11.70;99.90;;;;;;5019921;28;20050;-77
2024/02/03 09:10:24;;;;;;;33.30;14.75;;;11.70;99.90;;;;;;5022309;28;20451;-76
2024/02/03 09:12:50;;;;;;;28.65;14.50;;;11.60;99.90;;;;;;5023916;28;20684;-76
2024/02/03 09:15:16;;;;;;;29.42;15.55;;;11.70;99.90;;;;;;5022846;28;20055;-77
2024/02/03 09:17:42;;;;;;;26.25;14.32;;;11.70;99.90;;;;;;5022723;28;20565;-77
2024/02/03 09:20:08;;;;;;;28.75;15.00;;;11.80;99.90;;;;;;5028928;28;20034;-76
2024/02/03 09:22:35;;;;;;;28.75;15.63;;;11.80;99.90;;;;;;5033264;28;20018;-77
2024/02/03 09:25:00;;;;;;;31.38;16.75;;;11.80;99.90;;;;;;5031018;28;20037;-77
2024/02/03 09:27:27;;;;;;;34.10;15.77;;;11.80;99.90;;;;;;5033075;28;20026;-77
2024/02/03 09:29:53;;;;;;;37.78;18.40;;;11.80;99.90;;;;;;5033012;28;20042;-77
2024/02/03 09:32:19;;;;;;;38.75;19.63;;;11.70;99.90;;;;;;5028687;28;20480;-77
2024/02/03 09:34:49;;;;;;;32.53;16.67;;;11.70;99.90;;;;;;5026575;28;20034;-77
2024/02/03 09:37:15;;;;;;;30.13;16.95;;;11.70;99.90;;;;;;5029080;28;20029;-77
2024/02/03 09:39:42;;;;;;;35.47;16.83;;;11.70;99.90;;;;;;5023135;28;20077;-77
2024/02/03 09:42:08;;;;;;;35.60;17.63;;;11.70;99.90;;;;;;5033380;28;20053;-76
2024/02/03 09:44:34;;;;;;;36.65;18.45;;;11.70;99.90;;;;;;5029251;28;20026;-76
2024/02/03 09:47:01;;;;;;;32.47;17.20;;;11.80;99.90;;;;;;5032931;28;20390;-76
2024/02/03 09:49:26;;;;;;;33.45;17.88;;;11.80;99.90;;;;;;5025937;28;20037;-76
2024/02/03 09:51:52;;;;;;;33.47;18.88;;;11.90;99.90;;;;;;5025940;28;20068;-76
2024/02/03 09:54:18;;;;;;;35.60;18.98;;;11.90;99.90;;;;;;5010889;28;20050;-75
2024/02/03 09:56:46;;;;;;;37.03;21.92;;;11.90;99.90;;;;;;5012518;28;20064;-75
2024/02/03 09:59:13;;;;;;;43.28;21.35;;;11.90;99.90;;;;;;5028209;28;20021;-75
2024/02/03 10:01:40;;;;;;;40.65;22.15;;;12.00;99.90;;;;;;5032584;28;20034;-76
2024/02/03 10:04:06;;;;;;;33.67;22.27;;;12.00;99.90;;;;;;5030815;28;20021;-75
2024/02/03 10:06:32;;;;;;;39.88;21.95;;;12.00;99.90;;;;;;5029527;28;20083;-76
2024/02/03 10:08:57;;;;;;;35.65;21.27;;;12.00;99.90;;;;;;5032101;28;20053;-75
2024/02/03 10:11:23;;;;;;;36.70;21.77;;;12.00;99.90;;;;;;5032531;28;20028;-75
2024/02/03 10:14:05;;;;;;;36.05;19.98;;;12.00;99.90;;;;;;5032349;28;20025;-75
2024/02/03 10:16:41;;;;;;;33.77;20.07;;;12.00;99.90;;;;;;5032018;28;20025;-75
2024/02/03 10:19:07;;;;;;;33.47;20.13;;;12.10;99.90;;;;;;5031486;28;20083;-76
2024/02/03 10:21:33;;;;;;;34.45;19.50;;;12.10;99.90;;;;;;5032938;28;20025;-75
2024/02/03 10:23:59;;;;;;;35.42;20.83;;;12.10;99.90;;;;;;5032497;28;20026;-76
2024/02/03 10:26:24;;;;;;;36.40;21.63;;;12.10;99.90;;;;;;5032461;28;20030;-76
2024/02/03 10:28:50;;;;;;;33.67;20.48;;;12.10;99.90;;;;;;5031884;28;20060;-76
2024/02/03 10:31:16;;;;;;;34.65;17.92;;;12.20;99.90;;;;;;5032538;28;20033;-75
2024/02/03 10:33:44;;;;;;;30.67;19.83;;;12.20;99.90;;;;;;5032261;28;20382;-75
2024/02/03 10:36:10;;;;;;;28.13;20.02;;;12.30;99.90;;;;;;5031206;28;20060;-76
2024/02/03 10:38:36;;;;;;;29.92;20.67;;;12.30;99.90;;;;;;5032396;28;20387;-75
2024/02/03 10:41:05;;;;;;;33.45;20.48;;;12.30;99.90;;;;;;5031758;28;20026;-76
2024/02/03 10:43:34;;;;;;;32.97;21.35;;;12.40;99.90;;;;;;5031084;28;20072;-76
2024/02/03 10:46:10;;;;;;;33.70;19.50;;;12.40;99.90;;;;;;5031855;28;20075;-75
2024/02/03 10:48:42;;;;;;;31.90;21.02;;;12.40;99.90;;;;;;5030986;28;20590;-75
2024/02/03 10:51:18;;;;;;;34.00;18.90;;;12.40;99.90;;;;;;5031544;28;20044;-75
2024/02/03 10:54:00;;;;;;;29.77;20.20;;;12.40;99.90;;;;;;5032257;28;20029;-75
2024/02/03 10:56:30;;;;;;;31.50;20.13;;;12.40;99.90;;;;;;5032365;28;20021;-76
2024/02/03 10:58:56;;;;;;;26.65;19.70;;;12.50;99.90;;;;;;5031935;28;20077;-76
2024/02/03 11:01:32;;;;;;;27.27;19.00;;;12.50;99.90;;;;;;5031986;28;20041;-76
2024/02/03 11:04:00;;;;;;;28.10;18.40;;;12.50;99.90;;;;;;5031767;28;20026;-76
2024/02/03 11:06:31;;;;;;;27.90;18.25;;;12.50;99.90;;;;;;5031807;28;20025;-76
2024/02/03 11:09:13;;;;;;;29.38;18.55;;;12.50;99.90;;;;;;5031879;28;20068;-76
2024/02/03 11:11:47;;;;;;;27.65;17.90;;;12.60;99.90;;;;;;5030347;28;20111;-76
2024/02/03 11:14:17;;;;;;;22.52;17.10;;;12.60;99.90;;;;;;5030956;28;20482;-76
2024/02/03 11:16:52;;;;;;;25.42;18.00;;;12.60;99.90;;;;;;5030807;28;20021;-76
2024/02/03 11:19:24;;;;;;;22.17;15.88;;;12.70;99.90;;;;;;5030747;28;20033;-76
2024/02/03 11:21:58;;;;;;;22.38;16.20;;;12.70;99.90;;;;;;5018271;28;20111;-75
2024/02/03 11:24:24;;;;;;;28.90;17.25;;;12.60;99.90;;;;;;5017177;28;20036;-76
2024/02/03 11:27:03;;;;;;;26.35;16.90;;;12.70;99.90;;;;;;5016018;28;20498;-75
2024/02/03 11:29:29;;;;;;;25.60;16.10;;;12.60;99.90;;;;;;5024694;28;20036;-75
2024/02/03 11:31:59;;;;;;;30.05;17.58;;;12.70;99.90;;;;;;5020880;28;20036;-75
2024/02/03 11:34:27;;;;;;;26.90;15.90;;;12.70;99.90;;;;;;5023876;28;20056;-76
2024/02/03 11:36:54;;;;;;;26.98;15.70;;;12.70;99.90;;;;;;5015618;28;20026;-74
2024/02/03 11:39:36;;;;;;;24.40;16.23;;;12.70;99.90;;;;;;5031556;28;20028;-74
2024/02/03 11:42:07;;;;;;;25.08;16.35;;;12.80;99.90;;;;;;5027105;28;20070;-74
2024/02/03 11:44:53;;;;;;;27.38;17.60;;;12.80;99.90;;;;;;4998675;28;20136;-74
2024/02/03 11:47:21;;;;;;;28.80;18.00;;;12.70;99.90;;;;;;5028768;28;20033;-74
2024/02/03 11:49:47;;;;;;;29.65;18.90;;;12.80;99.90;;;;;;5028808;28;20505;-74
2024/02/03 11:52:13;;;;;;;26.58;16.88;;;12.70;99.90;;;;;;5031234;28;20112;-75
2024/02/03 11:54:39;;;;;;;27.63;16.80;;;12.70;99.90;;;;;;5031346;28;20121;-75
2024/02/03 11:57:05;;;;;;;29.98;17.33;;;12.70;99.90;;;;;;5027736;28;20128;-75
2024/02/03 11:59:31;;;;;;;24.55;16.38;;;12.80;99.90;;;;;;5034312;28;20013;-75
2024/02/03 12:01:58;;;;;;;25.58;16.25;;;12.60;99.90;;;;;;5033620;28;20037;-75
2024/02/03 12:04:25;;;;;;;22.95;14.60;;;12.70;99.90;;;;;;5033097;28;20096;-75
2024/02/03 12:06:52;;;;;;;25.55;13.75;;;12.60;99.90;;;;;;5029156;28;20025;-74
2024/02/03 12:09:18;;;;;;;21.58;13.45;;;12.60;99.90;;;;;;5030589;28;20033;-74
2024/02/03 12:11:49;;;;;;;27.38;13.80;;;12.60;99.90;;;;;;5029032;28;20033;-73
2024/02/03 12:14:15;;;;;;;28.52;16.92;;;12.60;99.90;;;;;;5030121;28;20562;-75
2024/02/03 12:16:42;;;;;;;28.33;15.55;;;12.60;99.90;;;;;;5031327;28;20045;-74
2024/02/03 12:19:09;;;;;;;26.38;15.77;;;12.60;99.90;;;;;;5032534;28;20024;-74
2024/02/03 12:21:35;;;;;;;24.95;15.88;;;12.50;99.90;;;;;;5032649;28;20055;-74
2024/02/03 12:24:00;;;;;;;26.63;16.58;;;12.50;99.90;;;;;;5029223;28;20037;-75